createdAt,value
2022-10-11T00:02:05.550Z,11.61
2022-10-11T00:04:44.046Z,11.59
2022-10-11T00:07:15.468Z,11.57
2022-10-11T00:09:42.251Z,11.54
2022-10-11T00:12:15.800Z,11.52
2022-10-11T00:14:45.262Z,11.49
2022-10-11T00:17:11.847Z,11.48
2022-10-11T00:19:38.574Z,11.47
2022-10-11T00:22:05.671Z,11.45
2022-10-11T00:24:33.542Z,11.43
2022-10-11T00:27:04.260Z,11.42
2022-10-11T00:29:49.534Z,11.41
2022-10-11T00:32:35.266Z,11.40
2022-10-11T00:35:06.343Z,11.38
2022-10-11T00:37:58.842Z,11.36
2022-10-11T00:40:37.959Z,11.35
2022-10-11T00:43:17.118Z,11.35
2022-10-11T00:45:58.692Z,11.34
2022-10-11T00:49:18.386Z,11.36
2022-10-11T00:53:15.575Z,11.37
2022-10-11T00:55:56.723Z,11.39
2022-10-11T00:58:28.209Z,11.42
2022-10-11T01:01:12.108Z,11.44
2022-10-11T01:04:02.354Z,11.45
2022-10-11T01:06:36.985Z,11.46
2022-10-11T01:09:06.654Z,11.46
2022-10-11T01:11:37.618Z,11.45
2022-10-11T01:14:23.583Z,11.45
2022-10-11T01:17:22.358Z,11.43
2022-10-11T01:20:17.330Z,11.42
2022-10-11T01:22:52.815Z,11.40
2022-10-11T01:25:36.654Z,11.38
2022-10-11T01:28:21.929Z,11.36
2022-10-11T01:30:50.610Z,11.34
2022-10-11T01:33:26.180Z,11.33
2022-10-11T01:36:05.139Z,11.33
2022-10-11T01:38:38.581Z,11.33
2022-10-11T01:41:26.839Z,11.32
2022-10-11T01:43:59.043Z,11.30
2022-10-11T01:46:28.214Z,11.30
2022-10-11T01:48:58.362Z,11.30
2022-10-11T01:51:33.990Z,11.31
2022-10-11T01:54:15.663Z,11.31
2022-10-11T01:57:17.826Z,11.31
2022-10-11T01:59:59.997Z,11.33
2022-10-11T02:03:13.816Z,11.34
2022-10-11T02:06:04.234Z,11.34
2022-10-11T02:08:46.677Z,11.35
2022-10-11T02:11:22.274Z,11.36
2022-10-11T02:14:14.176Z,11.37
2022-10-11T02:16:45.754Z,11.38
2022-10-11T02:19:24.463Z,11.39
2022-10-11T02:22:04.047Z,11.40
2022-10-11T02:24:35.518Z,11.42
2022-10-11T02:27:04.761Z,11.43
2022-10-11T02:29:38.348Z,11.45
2022-10-11T02:32:07.830Z,11.47
2022-10-11T02:34:46.953Z,11.49
2022-10-11T02:37:19.038Z,11.50
2022-10-11T02:40:11.305Z,11.53
2022-10-11T02:42:50.837Z,11.55
2022-10-11T02:45:38.404Z,11.57
2022-10-11T02:48:07.011Z,11.58
2022-10-11T02:50:33.649Z,11.59
2022-10-11T02:53:03.879Z,11.61
2022-10-11T02:55:37.822Z,11.61
2022-10-11T02:58:04.523Z,11.61
2022-10-11T03:00:31.467Z,11.61
2022-10-11T03:02:58.412Z,11.61
2022-10-11T03:05:25.398Z,11.62
2022-10-11T03:08:17.506Z,11.63
2022-10-11T03:10:44.685Z,11.63
2022-10-11T03:13:23.350Z,11.64
2022-10-11T03:16:07.268Z,11.65
2022-10-11T03:22:01.174Z,11.67
2022-10-11T03:24:31.863Z,11.69
2022-10-11T03:27:00.709Z,11.70
2022-10-11T03:29:27.303Z,11.71
2022-10-11T03:31:55.059Z,11.72
2022-10-11T03:34:21.647Z,11.73
2022-10-11T03:36:48.248Z,11.73
2022-10-11T03:39:32.233Z,11.74
2022-10-11T03:42:22.185Z,11.73
2022-10-11T03:44:51.254Z,11.74
2022-10-11T03:47:18.116Z,11.75
2022-10-11T03:49:45.065Z,11.74
2022-10-11T03:52:18.988Z,11.74
2022-10-11T03:54:52.981Z,11.73
2022-10-11T03:57:19.845Z,11.74
2022-10-11T03:59:47.661Z,11.73
2022-10-11T04:02:24.217Z,11.74
2022-10-11T04:05:01.421Z,11.74
2022-10-11T04:07:30.214Z,11.76
2022-10-11T04:10:05.311Z,11.77
2022-10-11T04:12:34.402Z,11.78
2022-10-11T04:15:07.738Z,11.79
2022-10-11T04:17:46.497Z,11.81
2022-10-11T04:20:22.140Z,11.83
2022-10-11T04:22:49.291Z,11.84
2022-10-11T04:25:16.227Z,11.84
2022-10-11T04:27:42.844Z,11.84
2022-10-11T04:30:10.597Z,11.83
2022-10-11T04:32:37.190Z,11.82
2022-10-11T04:35:04.900Z,11.80
2022-10-11T04:37:36.495Z,11.78
2022-10-11T04:40:17.201Z,11.77
2022-10-11T04:42:44.253Z,11.75
2022-10-11T04:45:11.634Z,11.75
2022-10-11T04:48:02.058Z,11.74
2022-10-11T04:50:48.023Z,11.73
2022-10-11T04:53:28.163Z,11.72
2022-10-11T04:56:02.134Z,11.72
2022-10-11T04:58:40.493Z,11.71
2022-10-11T05:01:08.793Z,11.72
2022-10-11T05:03:36.212Z,11.73
2022-10-11T05:06:05.869Z,11.73
2022-10-11T05:08:50.657Z,11.75
2022-10-11T05:11:18.191Z,11.75
2022-10-11T05:13:52.758Z,11.75
2022-10-11T05:16:19.576Z,11.75
2022-10-11T05:18:46.177Z,11.75
2022-10-11T05:21:18.744Z,11.76
2022-10-11T05:23:49.853Z,11.77
2022-10-11T05:26:30.797Z,11.80
2022-10-11T05:28:57.773Z,11.83
2022-10-11T05:31:24.729Z,11.86
2022-10-11T05:33:56.314Z,11.90
2022-10-11T05:36:23.356Z,11.94
2022-10-11T05:39:12.367Z,11.99
2022-10-11T05:42:14.296Z,12.04
2022-10-11T05:44:48.247Z,12.10
2022-10-11T05:47:15.434Z,12.17
2022-10-11T05:50:22.015Z,12.25
2022-10-11T05:52:54.251Z,12.33
2022-10-11T05:55:50.754Z,12.38
2022-10-11T05:58:58.694Z,12.45
2022-10-11T06:02:52.272Z,12.51
2022-10-11T06:06:10.720Z,12.56
2022-10-11T06:08:54.639Z,12.61
2022-10-11T06:11:26.794Z,12.65
2022-10-11T06:13:58.327Z,12.69
2022-10-11T06:16:29.410Z,12.71
2022-10-11T06:18:58.932Z,12.72
2022-10-11T06:21:25.770Z,12.74
2022-10-11T06:23:56.870Z,12.78
2022-10-11T06:27:01.954Z,12.83
2022-10-11T06:29:29.075Z,12.89
2022-10-11T06:32:00.876Z,12.90
2022-10-11T06:35:14.473Z,12.94
2022-10-11T06:37:41.529Z,13.02
2022-10-11T06:40:11.213Z,13.10
2022-10-11T06:43:00.730Z,13.15
2022-10-11T06:46:13.996Z,13.22
2022-10-11T06:53:59.228Z,13.39
2022-10-11T06:56:48.405Z,13.45
2022-10-11T06:59:38.412Z,13.51
2022-10-11T07:02:31.115Z,13.58
2022-10-11T07:05:06.465Z,13.64
2022-10-11T07:10:42.759Z,13.70
2022-10-11T07:13:16.973Z,13.75
2022-10-11T07:15:44.007Z,13.80
2022-10-11T07:18:10.559Z,13.84
2022-10-11T07:20:37.246Z,13.86
2022-10-11T07:23:24.474Z,13.90
2022-10-11T07:25:54.334Z,13.96
2022-10-11T07:28:23.306Z,14.01
2022-10-11T07:31:07.575Z,14.04
2022-10-11T07:33:37.074Z,14.08
2022-10-11T07:36:08.450Z,14.12
2022-10-11T07:48:52.506Z,14.49
2022-10-11T08:07:37.991Z,14.63
2022-10-11T08:08:59.297Z,15.13
2022-10-11T08:11:40.855Z,15.17
2022-10-11T09:28:34.221Z,17.53
2022-10-11T09:49:52.485Z,18.66
2022-10-11T10:23:50.898Z,18.97
2022-10-11T10:51:10.270Z,18.93
2022-10-11T10:54:39.756Z,18.60
2022-10-11T11:06:19.923Z,18.26
2022-10-11T11:18:25.380Z,18.21
2022-10-11T11:37:19.449Z,18.46
2022-10-11T11:58:09.321Z,18.90
2022-10-11T12:02:34.161Z,18.95
2022-10-11T12:17:27.205Z,19.31
2022-10-11T12:20:18.281Z,19.19
2022-10-11T12:22:53.840Z,18.99
2022-10-11T12:26:53.361Z,18.86
2022-10-11T12:29:50.726Z,18.87
2022-10-11T12:38:09.613Z,19.00
2022-10-11T12:41:41.620Z,19.04
2022-10-11T12:45:21.099Z,19.02
2022-10-11T12:48:52.996Z,19.03
2022-10-11T12:52:55.899Z,18.99
2022-10-11T12:56:28.048Z,18.90
2022-10-11T12:59:06.370Z,18.91
2022-10-11T13:02:49.625Z,18.97
2022-10-11T13:05:45.897Z,19.00
2022-10-11T13:08:49.639Z,18.97
2022-10-11T13:12:03.777Z,18.94
2022-10-11T13:19:01.293Z,18.86
2022-10-11T13:21:46.796Z,18.84
2022-10-11T13:25:54.863Z,18.78
2022-10-11T13:27:28.517Z,18.74
2022-10-11T13:37:48.089Z,18.68
2022-10-11T13:40:30.602Z,18.67
2022-10-11T13:44:07.587Z,18.63
2022-10-11T13:47:05.388Z,18.58
2022-10-11T13:49:40.596Z,18.56
2022-10-11T13:56:49.332Z,18.50
2022-10-11T13:59:31.276Z,18.50
2022-10-11T14:02:01.319Z,18.47
2022-10-11T14:04:41.951Z,18.46
2022-10-11T14:07:40.549Z,18.43
2022-10-11T14:10:24.890Z,18.39
2022-10-11T14:17:51.778Z,18.30
2022-10-11T14:20:54.608Z,18.27
2022-10-11T14:23:48.117Z,18.25
2022-10-11T14:26:22.672Z,18.24
2022-10-11T14:30:12.922Z,18.22
2022-10-11T14:32:12.789Z,18.20
2022-10-11T14:34:42.340Z,18.19
2022-10-11T14:37:27.407Z,18.18
2022-10-11T14:39:54.037Z,18.14
2022-10-11T14:42:23.841Z,18.10
2022-10-11T14:44:57.711Z,18.06
2022-10-11T14:47:42.963Z,18.02
2022-10-11T14:50:19.360Z,17.98
2022-10-11T14:52:53.755Z,17.92
2022-10-11T14:55:32.742Z,17.87
2022-10-11T14:58:16.962Z,17.78
2022-10-11T15:00:49.679Z,17.72
2022-10-11T15:03:24.839Z,17.68
2022-10-11T15:07:12.514Z,17.62
2022-10-11T15:10:34.719Z,17.53
2022-10-11T15:12:58.821Z,17.48
2022-10-11T15:16:08.428Z,17.43
2022-10-11T15:18:46.839Z,17.40
2022-10-11T15:21:38.845Z,17.37
2022-10-11T15:24:29.253Z,17.34
2022-10-11T15:27:25.039Z,17.32
2022-10-11T15:30:02.015Z,17.29
2022-10-11T15:32:46.573Z,17.26
2022-10-11T15:35:28.051Z,17.21
2022-10-11T15:38:56.877Z,17.17
2022-10-11T15:41:33.512Z,17.12
2022-10-11T15:44:09.913Z,17.07
2022-10-11T15:47:01.440Z,17.03
2022-10-11T15:49:36.965Z,16.99
2022-10-11T15:52:19.272Z,16.95
2022-10-11T15:55:07.134Z,16.92
2022-10-11T15:57:39.200Z,16.88
2022-10-11T16:00:17.538Z,16.83
2022-10-11T16:05:52.855Z,16.75
2022-10-11T16:08:25.363Z,16.71
2022-10-11T16:10:57.110Z,16.67
2022-10-11T16:20:35.125Z,16.52
2022-10-11T16:23:38.787Z,16.49
2022-10-11T16:26:12.755Z,16.47
2022-10-11T16:26:53.424Z,16.57
2022-10-11T18:09:13.828Z,16.37
2022-10-11T18:11:48.789Z,16.38
2022-10-11T18:15:07.783Z,16.26
2022-10-11T18:17:49.760Z,16.11
2022-10-11T18:20:30.479Z,16.02
2022-10-11T18:22:57.511Z,15.95
2022-10-11T18:25:59.909Z,15.87
2022-10-11T18:31:59.390Z,15.75
2022-10-11T18:34:59.819Z,15.70
2022-10-11T18:39:02.781Z,15.67
2022-10-11T18:41:29.380Z,15.81
2022-10-11T18:41:39.410Z,15.63
2022-10-11T18:44:34.695Z,15.61
2022-10-11T18:47:13.753Z,15.59
2022-10-11T18:50:19.968Z,15.58
2022-10-11T18:52:53.259Z,15.57
2022-10-11T18:55:32.530Z,15.56
2022-10-11T18:58:11.318Z,15.55
2022-10-11T19:01:07.286Z,15.54
2022-10-11T19:03:37.955Z,15.52
2022-10-11T19:06:21.350Z,15.51
2022-10-11T19:09:14.089Z,15.49
2022-10-11T19:12:14.227Z,15.47
2022-10-11T19:14:46.650Z,15.45
2022-10-11T19:17:14.249Z,15.43
2022-10-11T19:19:59.240Z,15.42
2022-10-11T19:22:26.017Z,15.39
2022-10-11T19:24:52.972Z,15.38
2022-10-11T19:32:02.892Z,15.33
2022-10-11T19:34:41.032Z,15.32
2022-10-11T19:37:12.798Z,15.31
2022-10-11T19:39:40.117Z,15.29
2022-10-11T19:42:08.346Z,15.28
2022-10-11T19:44:39.594Z,15.27
2022-10-11T19:47:11.496Z,15.25
2022-10-11T19:49:37.997Z,15.23
2022-10-11T19:52:25.959Z,15.22
2022-10-11T19:55:04.983Z,15.20
2022-10-11T19:57:42.264Z,15.18
2022-10-11T20:01:22.530Z,15.16
2022-10-11T20:04:33.152Z,15.14
2022-10-11T20:08:28.415Z,15.12
2022-10-11T20:10:59.025Z,15.09
2022-10-11T20:13:47.459Z,15.09
2022-10-11T20:16:53.675Z,15.09
2022-10-11T20:20:50.979Z,15.08
2022-10-11T20:23:35.186Z,15.08
2022-10-11T20:26:31.974Z,15.07
2022-10-11T20:28:58.750Z,15.06
2022-10-11T20:31:46.247Z,15.06
2022-10-11T20:34:31.765Z,15.05
2022-10-11T20:41:47.276Z,15.07
2022-10-11T20:44:48.743Z,15.06
2022-10-11T20:47:26.340Z,15.04
2022-10-11T20:49:53.142Z,15.04
2022-10-11T20:53:25.413Z,15.05
2022-10-11T21:00:49.774Z,15.03
